sensor_id;sensor_type;location;lat;lon;timestamp;P1;durP1;ratioP1;P2;durP2;ratioP2
37677;SDS011;23517;50.390;8.616;2022-07-23T00:00:18;8.15;;;5.25;;
37677;SDS011;23517;50.390;8.616;2022-07-23T00:02:46;10.43;;;5.75;;
37677;SDS011;23517;50.390;8.616;2022-07-23T00:05:14;7.80;;;5.88;;
37677;SDS011;23517;50.390;8.616;2022-07-23T00:07:40;8.20;;;5.13;;
37677;SDS011;23517;50.390;8.616;2022-07-23T00:10:07;9.73;;;5.47;;
37677;SDS011;23517;50.390;8.616;2022-07-23T00:12:35;8.55;;;6.05;;
37677;SDS011;23517;50.390;8.616;2022-07-23T00:15:15;6.70;;;5.90;;
37677;SDS011;23517;50.390;8.616;2022-07-23T00:17:42;6.47;;;5.82;;
37677;SDS011;23517;50.390;8.616;2022-07-23T00:20:09;8.85;;;6.50;;
37677;SDS011;23517;50.390;8.616;2022-07-23T00:22:36;11.57;;;6.95;;
37677;SDS011;23517;50.390;8.616;2022-07-23T00:25:15;8.30;;;6.40;;
37677;SDS011;23517;50.390;8.616;2022-07-23T00:27:59;11.18;;;6.70;;
37677;SDS011;23517;50.390;8.616;2022-07-23T00:30:27;9.18;;;6.55;;
37677;SDS011;23517;50.390;8.616;2022-07-23T00:32:57;13.15;;;7.28;;
37677;SDS011;23517;50.390;8.616;2022-07-23T00:35:27;7.70;;;6.72;;
37677;SDS011;23517;50.390;8.616;2022-07-23T00:37:57;7.88;;;6.95;;
37677;SDS011;23517;50.390;8.616;2022-07-23T00:40:26;9.98;;;7.03;;
37677;SDS011;23517;50.390;8.616;2022-07-23T00:42:54;9.52;;;7.25;;
37677;SDS011;23517;50.390;8.616;2022-07-23T00:45:21;10.60;;;6.82;;
37677;SDS011;23517;50.390;8.616;2022-07-23T00:47:48;11.30;;;7.63;;
37677;SDS011;23517;50.390;8.616;2022-07-23T00:50:15;10.00;;;6.75;;
37677;SDS011;23517;50.390;8.616;2022-07-23T00:52:42;9.98;;;7.10;;
37677;SDS011;23517;50.390;8.616;2022-07-23T00:55:09;10.25;;;6.70;;
37677;SDS011;23517;50.390;8.616;2022-07-23T00:57:38;9.23;;;6.55;;
37677;SDS011;23517;50.390;8.616;2022-07-23T01:00:07;10.07;;;6.72;;
37677;SDS011;23517;50.390;8.616;2022-07-23T01:02:37;8.57;;;6.80;;
37677;SDS011;23517;50.390;8.616;2022-07-23T01:05:05;8.95;;;6.47;;
37677;SDS011;23517;50.390;8.616;2022-07-23T01:07:34;10.95;;;6.85;;
37677;SDS011;23517;50.390;8.616;2022-07-23T01:10:02;10.00;;;7.32;;
37677;SDS011;23517;50.390;8.616;2022-07-23T01:12:31;7.72;;;6.15;;
37677;SDS011;23517;50.390;8.616;2022-07-23T01:14:59;10.57;;;7.45;;
37677;SDS011;23517;50.390;8.616;2022-07-23T01:17:26;11.63;;;6.93;;
37677;SDS011;23517;50.390;8.616;2022-07-23T01:19:54;9.15;;;6.55;;
37677;SDS011;23517;50.390;8.616;2022-07-23T01:22:20;7.50;;;6.68;;
37677;SDS011;23517;50.390;8.616;2022-07-23T01:24:48;8.38;;;6.75;;
37677;SDS011;23517;50.390;8.616;2022-07-23T01:27:14;10.38;;;7.28;;
37677;SDS011;23517;50.390;8.616;2022-07-23T01:29:45;9.52;;;6.88;;
37677;SDS011;23517;50.390;8.616;2022-07-23T01:32:12;10.90;;;7.47;;
37677;SDS011;23517;50.390;8.616;2022-07-23T01:34:39;9.75;;;7.18;;
37677;SDS011;23517;50.390;8.616;2022-07-23T01:37:06;10.00;;;7.32;;
37677;SDS011;23517;50.390;8.616;2022-07-23T01:39:33;9.30;;;7.15;;
37677;SDS011;23517;50.390;8.616;2022-07-23T01:42:00;9.32;;;7.07;;
37677;SDS011;23517;50.390;8.616;2022-07-23T01:44:27;10.93;;;6.93;;
37677;SDS011;23517;50.390;8.616;2022-07-23T01:46:54;10.52;;;6.70;;
37677;SDS011;23517;50.390;8.616;2022-07-23T01:49:22;8.48;;;6.43;;
37677;SDS011;23517;50.390;8.616;2022-07-23T01:51:48;16.67;;;8.00;;
37677;SDS011;23517;50.390;8.616;2022-07-23T01:54:28;10.85;;;7.57;;
37677;SDS011;23517;50.390;8.616;2022-07-23T01:56:57;11.93;;;7.13;;
37677;SDS011;23517;50.390;8.616;2022-07-23T01:59:26;11.18;;;7.47;;
37677;SDS011;23517;50.390;8.616;2022-07-23T02:01:54;10.93;;;7.20;;
37677;SDS011;23517;50.390;8.616;2022-07-23T02:04:21;11.90;;;7.35;;
37677;SDS011;23517;50.390;8.616;2022-07-23T02:06:50;9.77;;;6.70;;
37677;SDS011;23517;50.390;8.616;2022-07-23T02:09:17;9.07;;;6.88;;
37677;SDS011;23517;50.390;8.616;2022-07-23T02:11:45;9.32;;;6.93;;
37677;SDS011;23517;50.390;8.616;2022-07-23T02:14:12;11.23;;;6.53;;
37677;SDS011;23517;50.390;8.616;2022-07-23T02:16:39;11.15;;;7.03;;
37677;SDS011;23517;50.390;8.616;2022-07-23T02:19:06;8.38;;;6.75;;
37677;SDS011;23517;50.390;8.616;2022-07-23T02:21:33;8.43;;;6.50;;
37677;SDS011;23517;50.390;8.616;2022-07-23T02:24:00;9.35;;;7.70;;
37677;SDS011;23517;50.390;8.616;2022-07-23T02:26:26;8.70;;;7.38;;
37677;SDS011;23517;50.390;8.616;2022-07-23T02:28:53;10.60;;;7.82;;
37677;SDS011;23517;50.390;8.616;2022-07-23T02:31:25;8.63;;;7.57;;
37677;SDS011;23517;50.390;8.616;2022-07-23T02:33:52;9.18;;;7.50;;
37677;SDS011;23517;50.390;8.616;2022-07-23T02:36:18;12.73;;;8.43;;
37677;SDS011;23517;50.390;8.616;2022-07-23T02:38:45;10.18;;;7.90;;
37677;SDS011;23517;50.390;8.616;2022-07-23T02:41:13;10.32;;;7.93;;
37677;SDS011;23517;50.390;8.616;2022-07-23T02:43:39;10.00;;;7.75;;
37677;SDS011;23517;50.390;8.616;2022-07-23T02:46:06;9.35;;;7.53;;
37677;SDS011;23517;50.390;8.616;2022-07-23T02:48:33;12.18;;;8.90;;
37677;SDS011;23517;50.390;8.616;2022-07-23T02:51:00;11.13;;;8.23;;
37677;SDS011;23517;50.390;8.616;2022-07-23T02:53:27;11.98;;;7.35;;
37677;SDS011;23517;50.390;8.616;2022-07-23T02:55:54;10.52;;;8.10;;
37677;SDS011;23517;50.390;8.616;2022-07-23T02:58:20;10.23;;;8.68;;
37677;SDS011;23517;50.390;8.616;2022-07-23T03:00:47;11.63;;;8.70;;
37677;SDS011;23517;50.390;8.616;2022-07-23T03:03:14;12.55;;;8.73;;
37677;SDS011;23517;50.390;8.616;2022-07-23T03:05:41;11.00;;;7.63;;
37677;SDS011;23517;50.390;8.616;2022-07-23T03:08:08;11.98;;;8.98;;
37677;SDS011;23517;50.390;8.616;2022-07-23T03:10:34;10.65;;;8.52;;
37677;SDS011;23517;50.390;8.616;2022-07-23T03:13:01;10.38;;;8.00;;
37677;SDS011;23517;50.390;8.616;2022-07-23T03:15:29;12.55;;;8.80;;
37677;SDS011;23517;50.390;8.616;2022-07-23T03:17:56;10.27;;;8.13;;
37677;SDS011;23517;50.390;8.616;2022-07-23T03:20:22;10.73;;;8.98;;
37677;SDS011;23517;50.390;8.616;2022-07-23T03:22:49;11.73;;;9.73;;
37677;SDS011;23517;50.390;8.616;2022-07-23T03:25:16;12.80;;;8.98;;
37677;SDS011;23517;50.390;8.616;2022-07-23T03:27:42;13.23;;;8.38;;
37677;SDS011;23517;50.390;8.616;2022-07-23T03:30:11;10.80;;;8.50;;
37677;SDS011;23517;50.390;8.616;2022-07-23T03:32:38;10.45;;;8.85;;
37677;SDS011;23517;50.390;8.616;2022-07-23T03:35:05;11.15;;;8.55;;
37677;SDS011;23517;50.390;8.616;2022-07-23T03:37:34;11.90;;;8.80;;
37677;SDS011;23517;50.390;8.616;2022-07-23T03:40:01;9.57;;;8.02;;
37677;SDS011;23517;50.390;8.616;2022-07-23T03:42:28;11.18;;;8.93;;
37677;SDS011;23517;50.390;8.616;2022-07-23T03:44:55;10.95;;;8.82;;
37677;SDS011;23517;50.390;8.616;2022-07-23T03:47:22;11.70;;;8.57;;
37677;SDS011;23517;50.390;8.616;2022-07-23T03:49:49;9.88;;;8.63;;
37677;SDS011;23517;50.390;8.616;2022-07-23T03:52:16;11.75;;;9.73;;
37677;SDS011;23517;50.390;8.616;2022-07-23T03:54:43;10.85;;;8.63;;
37677;SDS011;23517;50.390;8.616;2022-07-23T03:57:10;15.52;;;9.77;;
37677;SDS011;23517;50.390;8.616;2022-07-23T03:59:36;13.10;;;9.27;;
37677;SDS011;23517;50.390;8.616;2022-07-23T04:02:03;14.23;;;9.27;;
37677;SDS011;23517;50.390;8.616;2022-07-23T04:04:30;12.10;;;9.07;;
37677;SDS011;23517;50.390;8.616;2022-07-23T04:06:56;13.57;;;8.63;;
37677;SDS011;23517;50.390;8.616;2022-07-23T04:09:23;13.25;;;9.43;;
37677;SDS011;23517;50.390;8.616;2022-07-23T04:11:50;15.43;;;10.02;;
37677;SDS011;23517;50.390;8.616;2022-07-23T04:14:16;15.48;;;10.88;;
37677;SDS011;23517;50.390;8.616;2022-07-23T04:16:43;15.25;;;10.82;;
37677;SDS011;23517;50.390;8.616;2022-07-23T04:19:10;15.57;;;10.77;;
37677;SDS011;23517;50.390;8.616;2022-07-23T04:21:37;13.25;;;10.23;;
37677;SDS011;23517;50.390;8.616;2022-07-23T04:24:03;17.40;;;10.48;;
37677;SDS011;23517;50.390;8.616;2022-07-23T04:26:30;17.08;;;10.80;;
37677;SDS011;23517;50.390;8.616;2022-07-23T04:28:57;16.48;;;9.55;;
37677;SDS011;23517;50.390;8.616;2022-07-23T04:31:24;14.57;;;11.23;;
37677;SDS011;23517;50.390;8.616;2022-07-23T04:33:51;13.23;;;10.60;;
37677;SDS011;23517;50.390;8.616;2022-07-23T04:36:18;18.25;;;11.23;;
37677;SDS011;23517;50.390;8.616;2022-07-23T04:38:44;12.25;;;9.60;;
37677;SDS011;23517;50.390;8.616;2022-07-23T04:41:17;12.18;;;9.23;;
37677;SDS011;23517;50.390;8.616;2022-07-23T04:43:44;14.75;;;10.20;;
37677;SDS011;23517;50.390;8.616;2022-07-23T04:46:11;15.25;;;10.32;;
37677;SDS011;23517;50.390;8.616;2022-07-23T04:48:37;12.88;;;9.88;;
37677;SDS011;23517;50.390;8.616;2022-07-23T04:51:05;16.08;;;9.82;;
37677;SDS011;23517;50.390;8.616;2022-07-23T04:53:32;13.40;;;9.38;;
37677;SDS011;23517;50.390;8.616;2022-07-23T04:55:58;10.90;;;9.10;;
37677;SDS011;23517;50.390;8.616;2022-07-23T04:58:25;11.18;;;8.63;;
37677;SDS011;23517;50.390;8.616;2022-07-23T05:00:52;10.52;;;8.18;;
37677;SDS011;23517;50.390;8.616;2022-07-23T05:03:19;11.10;;;7.28;;
37677;SDS011;23517;50.390;8.616;2022-07-23T05:05:50;13.63;;;7.95;;
37677;SDS011;23517;50.390;8.616;2022-07-23T05:08:17;10.30;;;7.10;;
37677;SDS011;23517;50.390;8.616;2022-07-23T05:10:44;14.48;;;7.65;;
37677;SDS011;23517;50.390;8.616;2022-07-23T05:13:10;9.40;;;6.00;;
37677;SDS011;23517;50.390;8.616;2022-07-23T05:15:37;10.75;;;7.03;;
37677;SDS011;23517;50.390;8.616;2022-07-23T05:18:04;8.68;;;6.85;;
37677;SDS011;23517;50.390;8.616;2022-07-23T05:20:30;11.18;;;6.50;;
37677;SDS011;23517;50.390;8.616;2022-07-23T05:22:57;9.73;;;5.85;;
37677;SDS011;23517;50.390;8.616;2022-07-23T05:25:24;6.68;;;5.68;;
37677;SDS011;23517;50.390;8.616;2022-07-23T05:27:51;7.18;;;5.30;;
37677;SDS011;23517;50.390;8.616;2022-07-23T05:30:17;10.27;;;5.97;;
37677;SDS011;23517;50.390;8.616;2022-07-23T05:32:44;9.50;;;6.10;;
37677;SDS011;23517;50.390;8.616;2022-07-23T05:35:11;9.50;;;5.68;;
37677;SDS011;23517;50.390;8.616;2022-07-23T05:37:38;9.82;;;5.70;;
37677;SDS011;23517;50.390;8.616;2022-07-23T05:40:06;8.38;;;5.80;;
37677;SDS011;23517;50.390;8.616;2022-07-23T05:42:35;6.45;;;5.10;;
37677;SDS011;23517;50.390;8.616;2022-07-23T05:45:06;9.40;;;4.97;;
37677;SDS011;23517;50.390;8.616;2022-07-23T05:47:44;6.85;;;4.70;;
37677;SDS011;23517;50.390;8.616;2022-07-23T05:50:13;7.05;;;4.35;;
37677;SDS011;23517;50.390;8.616;2022-07-23T05:52:41;7.65;;;4.90;;
37677;SDS011;23517;50.390;8.616;2022-07-23T05:55:08;10.30;;;4.35;;
37677;SDS011;23517;50.390;8.616;2022-07-23T05:57:38;9.15;;;4.32;;
37677;SDS011;23517;50.390;8.616;2022-07-23T06:00:07;3.97;;;3.53;;
37677;SDS011;23517;50.390;8.616;2022-07-23T06:02:35;8.65;;;4.60;;
37677;SDS011;23517;50.390;8.616;2022-07-23T06:05:04;6.40;;;4.30;;
37677;SDS011;23517;50.390;8.616;2022-07-23T06:07:34;5.90;;;4.22;;
37677;SDS011;23517;50.390;8.616;2022-07-23T06:10:02;6.65;;;4.57;;
37677;SDS011;23517;50.390;8.616;2022-07-23T06:12:30;6.78;;;4.30;;
37677;SDS011;23517;50.390;8.616;2022-07-23T06:14:57;6.05;;;4.40;;
37677;SDS011;23517;50.390;8.616;2022-07-23T06:17:24;5.57;;;4.70;;
37677;SDS011;23517;50.390;8.616;2022-07-23T06:19:52;7.75;;;4.88;;
37677;SDS011;23517;50.390;8.616;2022-07-23T06:22:19;5.72;;;4.25;;
37677;SDS011;23517;50.390;8.616;2022-07-23T06:24:47;7.03;;;4.43;;
37677;SDS011;23517;50.390;8.616;2022-07-23T06:27:14;10.63;;;4.70;;
37677;SDS011;23517;50.390;8.616;2022-07-23T06:29:41;6.93;;;4.40;;
37677;SDS011;23517;50.390;8.616;2022-07-23T06:32:08;6.43;;;4.28;;
37677;SDS011;23517;50.390;8.616;2022-07-23T06:34:35;5.53;;;4.72;;
37677;SDS011;23517;50.390;8.616;2022-07-23T06:37:02;9.15;;;4.70;;
37677;SDS011;23517;50.390;8.616;2022-07-23T06:39:30;5.65;;;4.00;;
37677;SDS011;23517;50.390;8.616;2022-07-23T06:41:58;5.82;;;3.45;;
37677;SDS011;23517;50.390;8.616;2022-07-23T06:44:26;4.30;;;3.45;;
37677;SDS011;23517;50.390;8.616;2022-07-23T06:46:53;5.40;;;3.55;;
37677;SDS011;23517;50.390;8.616;2022-07-23T06:49:20;4.55;;;3.58;;
37677;SDS011;23517;50.390;8.616;2022-07-23T06:51:48;6.38;;;3.70;;
37677;SDS011;23517;50.390;8.616;2022-07-23T06:54:15;4.68;;;3.92;;
37677;SDS011;23517;50.390;8.616;2022-07-23T06:56:41;6.72;;;4.85;;
37677;SDS011;23517;50.390;8.616;2022-07-23T06:59:09;5.53;;;4.25;;
37677;SDS011;23517;50.390;8.616;2022-07-23T07:01:36;7.03;;;3.72;;
37677;SDS011;23517;50.390;8.616;2022-07-23T07:04:03;7.75;;;3.45;;
37677;SDS011;23517;50.390;8.616;2022-07-23T07:06:30;7.30;;;3.97;;
37677;SDS011;23517;50.390;8.616;2022-07-23T07:08:57;7.57;;;4.05;;
37677;SDS011;23517;50.390;8.616;2022-07-23T07:11:24;6.55;;;3.45;;
37677;SDS011;23517;50.390;8.616;2022-07-23T07:13:51;6.85;;;3.42;;
37677;SDS011;23517;50.390;8.616;2022-07-23T07:16:18;6.90;;;3.00;;
37677;SDS011;23517;50.390;8.616;2022-07-23T07:18:45;4.55;;;3.38;;
37677;SDS011;23517;50.390;8.616;2022-07-23T07:21:12;4.43;;;2.70;;
37677;SDS011;23517;50.390;8.616;2022-07-23T07:23:39;3.50;;;2.65;;
37677;SDS011;23517;50.390;8.616;2022-07-23T07:26:06;4.00;;;3.10;;
37677;SDS011;23517;50.390;8.616;2022-07-23T07:28:32;4.45;;;2.95;;
37677;SDS011;23517;50.390;8.616;2022-07-23T07:30:59;3.85;;;2.90;;
37677;SDS011;23517;50.390;8.616;2022-07-23T07:33:26;3.88;;;2.78;;
37677;SDS011;23517;50.390;8.616;2022-07-23T07:35:53;5.30;;;2.75;;
37677;SDS011;23517;50.390;8.616;2022-07-23T07:38:19;6.75;;;3.05;;
37677;SDS011;23517;50.390;8.616;2022-07-23T07:40:46;5.47;;;2.88;;
37677;SDS011;23517;50.390;8.616;2022-07-23T07:43:14;6.82;;;3.17;;
37677;SDS011;23517;50.390;8.616;2022-07-23T07:45:40;5.10;;;3.17;;
37677;SDS011;23517;50.390;8.616;2022-07-23T07:48:07;4.25;;;3.00;;
37677;SDS011;23517;50.390;8.616;2022-07-23T07:50:34;3.67;;;3.15;;
37677;SDS011;23517;50.390;8.616;2022-07-23T07:53:01;4.85;;;2.92;;
37677;SDS011;23517;50.390;8.616;2022-07-23T07:55:27;4.00;;;3.17;;
37677;SDS011;23517;50.390;8.616;2022-07-23T07:57:55;4.63;;;2.60;;
37677;SDS011;23517;50.390;8.616;2022-07-23T08:00:22;4.30;;;2.70;;
37677;SDS011;23517;50.390;8.616;2022-07-23T08:02:50;5.78;;;2.95;;
37677;SDS011;23517;50.390;8.616;2022-07-23T08:05:19;6.88;;;2.60;;
37677;SDS011;23517;50.390;8.616;2022-07-23T08:07:53;4.18;;;2.75;;
37677;SDS011;23517;50.390;8.616;2022-07-23T08:10:22;5.32;;;2.40;;
37677;SDS011;23517;50.390;8.616;2022-07-23T08:12:51;3.53;;;2.33;;
37677;SDS011;23517;50.390;8.616;2022-07-23T08:15:22;5.38;;;2.63;;
37677;SDS011;23517;50.390;8.616;2022-07-23T08:17:51;3.30;;;2.38;;
37677;SDS011;23517;50.390;8.616;2022-07-23T08:20:19;3.75;;;2.25;;
37677;SDS011;23517;50.390;8.616;2022-07-23T08:25:29;5.97;;;2.13;;
37677;SDS011;23517;50.390;8.616;2022-07-23T08:28:09;2.88;;;1.90;;
37677;SDS011;23517;50.390;8.616;2022-07-23T08:30:38;3.22;;;2.08;;
37677;SDS011;23517;50.390;8.616;2022-07-23T08:33:07;4.07;;;2.03;;
37677;SDS011;23517;50.390;8.616;2022-07-23T08:35:57;3.47;;;2.47;;
37677;SDS011;23517;50.390;8.616;2022-07-23T08:38:24;3.08;;;2.40;;
37677;SDS011;23517;50.390;8.616;2022-07-23T08:40:52;3.80;;;2.63;;
37677;SDS011;23517;50.390;8.616;2022-07-23T08:43:22;4.55;;;2.22;;
37677;SDS011;23517;50.390;8.616;2022-07-23T08:45:52;3.83;;;2.10;;
37677;SDS011;23517;50.390;8.616;2022-07-23T08:48:24;4.72;;;1.85;;
37677;SDS011;23517;50.390;8.616;2022-07-23T08:50:53;3.13;;;2.00;;
37677;SDS011;23517;50.390;8.616;2022-07-23T08:53:28;24.70;;;2.75;;
37677;SDS011;23517;50.390;8.616;2022-07-23T08:55:57;3.40;;;1.90;;
37677;SDS011;23517;50.390;8.616;2022-07-23T08:58:27;2.38;;;1.63;;
37677;SDS011;23517;50.390;8.616;2022-07-23T09:00:56;3.58;;;1.92;;
37677;SDS011;23517;50.390;8.616;2022-07-23T09:03:30;19.13;;;2.85;;
37677;SDS011;23517;50.390;8.616;2022-07-23T09:06:06;4.15;;;2.15;;
37677;SDS011;23517;50.390;8.616;2022-07-23T09:08:37;5.07;;;2.05;;
37677;SDS011;23517;50.390;8.616;2022-07-23T09:11:13;2.95;;;2.20;;
37677;SDS011;23517;50.390;8.616;2022-07-23T09:13:52;4.72;;;1.77;;
37677;SDS011;23517;50.390;8.616;2022-07-23T09:16:24;3.13;;;1.80;;
37677;SDS011;23517;50.390;8.616;2022-07-23T09:19:00;2.90;;;1.90;;
37677;SDS011;23517;50.390;8.616;2022-07-23T09:21:37;2.58;;;1.95;;
37677;SDS011;23517;50.390;8.616;2022-07-23T09:26:37;3.85;;;1.90;;
37677;SDS011;23517;50.390;8.616;2022-07-23T09:29:23;7.85;;;2.13;;
37677;SDS011;23517;50.390;8.616;2022-07-23T09:31:52;3.85;;;2.20;;
37677;SDS011;23517;50.390;8.616;2022-07-23T09:34:32;4.97;;;2.17;;
37677;SDS011;23517;50.390;8.616;2022-07-23T09:37:10;3.38;;;1.95;;
37677;SDS011;23517;50.390;8.616;2022-07-23T09:39:40;2.40;;;1.80;;
37677;SDS011;23517;50.390;8.616;2022-07-23T09:42:22;3.13;;;2.08;;
37677;SDS011;23517;50.390;8.616;2022-07-23T09:44:55;5.03;;;2.42;;
37677;SDS011;23517;50.390;8.616;2022-07-23T09:47:25;4.13;;;2.20;;
37677;SDS011;23517;50.390;8.616;2022-07-23T09:50:07;4.60;;;2.38;;
37677;SDS011;23517;50.390;8.616;2022-07-23T09:52:45;3.08;;;2.03;;
37677;SDS011;23517;50.390;8.616;2022-07-23T09:55:17;7.55;;;2.30;;
37677;SDS011;23517;50.390;8.616;2022-07-23T09:57:45;3.60;;;1.92;;
37677;SDS011;23517;50.390;8.616;2022-07-23T10:00:23;4.32;;;1.90;;
37677;SDS011;23517;50.390;8.616;2022-07-23T10:02:51;2.35;;;1.90;;
37677;SDS011;23517;50.390;8.616;2022-07-23T10:05:19;6.63;;;2.67;;
37677;SDS011;23517;50.390;8.616;2022-07-23T10:07:46;4.25;;;2.05;;
37677;SDS011;23517;50.390;8.616;2022-07-23T10:10:18;5.13;;;2.13;;
37677;SDS011;23517;50.390;8.616;2022-07-23T10:12:48;6.97;;;2.10;;
37677;SDS011;23517;50.390;8.616;2022-07-23T10:15:34;3.83;;;2.03;;
37677;SDS011;23517;50.390;8.616;2022-07-23T10:18:02;2.28;;;2.08;;
37677;SDS011;23517;50.390;8.616;2022-07-23T10:20:28;3.17;;;2.03;;
37677;SDS011;23517;50.390;8.616;2022-07-23T10:26:17;4.28;;;2.70;;
37677;SDS011;23517;50.390;8.616;2022-07-23T10:34:34;2.85;;;2.50;;
37677;SDS011;23517;50.390;8.616;2022-07-23T10:37:14;4.88;;;2.83;;
37677;SDS011;23517;50.390;8.616;2022-07-23T10:42:46;5.57;;;3.30;;
37677;SDS011;23517;50.390;8.616;2022-07-23T10:48:19;4.78;;;2.95;;
37677;SDS011;23517;50.390;8.616;2022-07-23T10:51:05;4.07;;;2.72;;
37677;SDS011;23517;50.390;8.616;2022-07-23T10:53:54;6.88;;;3.33;;
37677;SDS011;23517;50.390;8.616;2022-07-23T10:59:23;3.30;;;2.70;;
37677;SDS011;23517;50.390;8.616;2022-07-23T11:01:50;7.22;;;3.80;;
37677;SDS011;23517;50.390;8.616;2022-07-23T11:04:18;3.65;;;3.10;;
37677;SDS011;23517;50.390;8.616;2022-07-23T11:09:32;3.50;;;3.00;;
37677;SDS011;23517;50.390;8.616;2022-07-23T11:15:25;3.80;;;3.08;;
37677;SDS011;23517;50.390;8.616;2022-07-23T11:17:34;5.03;;;3.35;;
37677;SDS011;23517;50.390;8.616;2022-07-23T11:25:06;7.28;;;4.10;;
37677;SDS011;23517;50.390;8.616;2022-07-23T11:30:07;4.43;;;3.70;;
37677;SDS011;23517;50.390;8.616;2022-07-23T11:32:37;3.95;;;3.58;;
37677;SDS011;23517;50.390;8.616;2022-07-23T11:35:22;4.00;;;3.60;;
37677;SDS011;23517;50.390;8.616;2022-07-23T11:37:54;3.38;;;3.08;;
37677;SDS011;23517;50.390;8.616;2022-07-23T11:40:48;4.95;;;3.40;;
37677;SDS011;23517;50.390;8.616;2022-07-23T11:43:17;4.63;;;3.63;;
37677;SDS011;23517;50.390;8.616;2022-07-23T11:45:46;7.20;;;3.70;;
37677;SDS011;23517;50.390;8.616;2022-07-23T11:48:20;5.63;;;3.65;;
37677;SDS011;23517;50.390;8.616;2022-07-23T11:50:53;10.38;;;3.70;;
37677;SDS011;23517;50.390;8.616;2022-07-23T11:53:28;5.03;;;3.10;;
37677;SDS011;23517;50.390;8.616;2022-07-23T11:56:09;3.80;;;3.45;;
37677;SDS011;23517;50.390;8.616;2022-07-23T11:58:37;4.72;;;3.67;;
37677;SDS011;23517;50.390;8.616;2022-07-23T12:01:05;3.47;;;3.10;;
37677;SDS011;23517;50.390;8.616;2022-07-23T12:03:48;3.70;;;3.05;;
37677;SDS011;23517;50.390;8.616;2022-07-23T12:06:19;3.88;;;3.47;;
37677;SDS011;23517;50.390;8.616;2022-07-23T12:08:46;4.13;;;3.60;;
37677;SDS011;23517;50.390;8.616;2022-07-23T12:11:12;5.05;;;3.38;;
37677;SDS011;23517;50.390;8.616;2022-07-23T12:13:39;4.05;;;3.47;;
37677;SDS011;23517;50.390;8.616;2022-07-23T12:16:06;4.60;;;3.42;;
37677;SDS011;23517;50.390;8.616;2022-07-23T12:18:34;6.68;;;3.42;;
37677;SDS011;23517;50.390;8.616;2022-07-23T12:21:03;3.70;;;3.30;;
37677;SDS011;23517;50.390;8.616;2022-07-23T12:23:31;5.00;;;3.55;;
37677;SDS011;23517;50.390;8.616;2022-07-23T12:26:00;5.78;;;3.58;;
37677;SDS011;23517;50.390;8.616;2022-07-23T12:28:30;5.03;;;3.40;;
37677;SDS011;23517;50.390;8.616;2022-07-23T12:30:59;6.03;;;3.90;;
37677;SDS011;23517;50.390;8.616;2022-07-23T12:33:30;4.20;;;3.47;;
37677;SDS011;23517;50.390;8.616;2022-07-23T12:36:01;4.13;;;3.42;;
37677;SDS011;23517;50.390;8.616;2022-07-23T12:38:44;4.13;;;3.30;;
37677;SDS011;23517;50.390;8.616;2022-07-23T12:41:15;3.40;;;3.10;;
37677;SDS011;23517;50.390;8.616;2022-07-23T12:43:43;6.07;;;3.90;;
37677;SDS011;23517;50.390;8.616;2022-07-23T12:46:13;5.40;;;3.50;;
37677;SDS011;23517;50.390;8.616;2022-07-23T12:48:53;4.47;;;3.35;;
37677;SDS011;23517;50.390;8.616;2022-07-23T12:51:21;6.95;;;4.03;;
37677;SDS011;23517;50.390;8.616;2022-07-23T12:54:08;4.20;;;3.53;;
37677;SDS011;23517;50.390;8.616;2022-07-23T12:56:37;6.45;;;3.53;;
37677;SDS011;23517;50.390;8.616;2022-07-23T12:59:14;6.43;;;3.50;;
37677;SDS011;23517;50.390;8.616;2022-07-23T13:01:44;4.15;;;3.30;;
37677;SDS011;23517;50.390;8.616;2022-07-23T13:04:22;5.30;;;3.60;;
37677;SDS011;23517;50.390;8.616;2022-07-23T13:06:51;3.60;;;3.20;;
37677;SDS011;23517;50.390;8.616;2022-07-23T13:09:26;5.18;;;3.15;;
37677;SDS011;23517;50.390;8.616;2022-07-23T13:11:59;4.55;;;3.65;;
37677;SDS011;23517;50.390;8.616;2022-07-23T13:14:26;6.55;;;3.72;;
37677;SDS011;23517;50.390;8.616;2022-07-23T13:16:54;4.82;;;3.58;;
37677;SDS011;23517;50.390;8.616;2022-07-23T13:19:24;4.07;;;3.33;;
37677;SDS011;23517;50.390;8.616;2022-07-23T13:21:53;6.28;;;3.72;;
37677;SDS011;23517;50.390;8.616;2022-07-23T13:24:19;7.07;;;3.80;;
37677;SDS011;23517;50.390;8.616;2022-07-23T13:26:46;4.68;;;3.70;;
37677;SDS011;23517;50.390;8.616;2022-07-23T13:29:15;4.90;;;3.53;;
37677;SDS011;23517;50.390;8.616;2022-07-23T13:31:45;3.92;;;3.33;;
37677;SDS011;23517;50.390;8.616;2022-07-23T13:34:14;3.80;;;3.28;;
37677;SDS011;23517;50.390;8.616;2022-07-23T13:36:41;5.20;;;3.88;;
37677;SDS011;23517;50.390;8.616;2022-07-23T13:39:09;8.80;;;4.13;;
37677;SDS011;23517;50.390;8.616;2022-07-23T13:41:37;4.90;;;3.63;;
37677;SDS011;23517;50.390;8.616;2022-07-23T13:44:04;8.30;;;3.85;;
37677;SDS011;23517;50.390;8.616;2022-07-23T13:46:33;6.95;;;3.83;;
37677;SDS011;23517;50.390;8.616;2022-07-23T13:49:01;5.88;;;3.67;;
37677;SDS011;23517;50.390;8.616;2022-07-23T13:51:28;3.80;;;2.95;;
37677;SDS011;23517;50.390;8.616;2022-07-23T13:53:55;4.55;;;2.95;;
37677;SDS011;23517;50.390;8.616;2022-07-23T13:56:25;3.47;;;2.88;;
37677;SDS011;23517;50.390;8.616;2022-07-23T13:58:52;4.22;;;2.67;;
37677;SDS011;23517;50.390;8.616;2022-07-23T14:01:19;3.10;;;2.72;;
37677;SDS011;23517;50.390;8.616;2022-07-23T14:03:46;3.67;;;2.72;;
37677;SDS011;23517;50.390;8.616;2022-07-23T14:06:13;6.38;;;3.05;;
37677;SDS011;23517;50.390;8.616;2022-07-23T14:08:42;6.40;;;3.08;;
37677;SDS011;23517;50.390;8.616;2022-07-23T14:11:11;3.40;;;3.03;;
37677;SDS011;23517;50.390;8.616;2022-07-23T14:13:38;3.72;;;2.90;;
37677;SDS011;23517;50.390;8.616;2022-07-23T14:16:06;3.95;;;2.70;;
37677;SDS011;23517;50.390;8.616;2022-07-23T14:18:33;4.25;;;2.70;;
37677;SDS011;23517;50.390;8.616;2022-07-23T14:21:01;3.75;;;2.80;;
37677;SDS011;23517;50.390;8.616;2022-07-23T14:23:28;3.97;;;2.70;;
37677;SDS011;23517;50.390;8.616;2022-07-23T14:25:56;2.60;;;2.40;;
37677;SDS011;23517;50.390;8.616;2022-07-23T14:28:23;3.70;;;3.00;;
37677;SDS011;23517;50.390;8.616;2022-07-23T14:30:50;3.25;;;2.80;;
37677;SDS011;23517;50.390;8.616;2022-07-23T14:33:18;4.10;;;2.70;;
37677;SDS011;23517;50.390;8.616;2022-07-23T14:35:46;7.82;;;2.45;;
37677;SDS011;23517;50.390;8.616;2022-07-23T14:38:13;2.78;;;2.42;;
37677;SDS011;23517;50.390;8.616;2022-07-23T14:40:40;3.28;;;2.35;;
37677;SDS011;23517;50.390;8.616;2022-07-23T14:43:09;5.30;;;2.95;;
37677;SDS011;23517;50.390;8.616;2022-07-23T14:45:37;3.97;;;2.60;;
37677;SDS011;23517;50.390;8.616;2022-07-23T14:48:04;5.03;;;2.40;;
37677;SDS011;23517;50.390;8.616;2022-07-23T14:50:33;4.97;;;2.75;;
37677;SDS011;23517;50.390;8.616;2022-07-23T14:53:00;3.08;;;2.47;;
37677;SDS011;23517;50.390;8.616;2022-07-23T14:55:27;3.03;;;2.72;;
37677;SDS011;23517;50.390;8.616;2022-07-23T14:57:54;5.50;;;2.40;;
37677;SDS011;23517;50.390;8.616;2022-07-23T15:00:21;3.47;;;2.63;;
37677;SDS011;23517;50.390;8.616;2022-07-23T15:02:49;3.65;;;2.65;;
37677;SDS011;23517;50.390;8.616;2022-07-23T15:05:21;4.13;;;2.15;;
37677;SDS011;23517;50.390;8.616;2022-07-23T15:07:50;3.35;;;2.20;;
37677;SDS011;23517;50.390;8.616;2022-07-23T15:10:17;2.95;;;2.22;;
37677;SDS011;23517;50.390;8.616;2022-07-23T15:12:47;3.35;;;2.28;;
37677;SDS011;23517;50.390;8.616;2022-07-23T15:15:15;3.88;;;2.20;;
37677;SDS011;23517;50.390;8.616;2022-07-23T15:20:09;4.77;;;2.20;;
37677;SDS011;23517;50.390;8.616;2022-07-23T15:22:36;5.32;;;2.08;;
37677;SDS011;23517;50.390;8.616;2022-07-23T15:25:03;3.25;;;2.10;;
37677;SDS011;23517;50.390;8.616;2022-07-23T15:27:31;2.65;;;2.13;;
37677;SDS011;23517;50.390;8.616;2022-07-23T15:29:58;4.85;;;2.40;;
37677;SDS011;23517;50.390;8.616;2022-07-23T15:32:25;1.83;;;1.65;;